sensor_id;sensor_type;location;lat;lon;timestamp;P1;durP1;ratioP1;P2;durP2;ratioP2
72586;SDS011;60621;49.576;11.024;2023-04-30T00:00:42;9.20;;;5.35;;
72586;SDS011;60621;49.576;11.024;2023-04-30T00:01:44;9.43;;;5.18;;
72586;SDS011;60621;49.576;11.024;2023-04-30T00:02:46;8.52;;;5.35;;
72586;SDS011;60621;49.576;11.024;2023-04-30T00:03:47;9.57;;;5.47;;
72586;SDS011;60621;49.576;11.024;2023-04-30T00:04:49;9.68;;;5.43;;
72586;SDS011;60621;49.576;11.024;2023-04-30T00:05:53;8.52;;;5.13;;
72586;SDS011;60621;49.576;11.024;2023-04-30T00:06:55;13.07;;;5.47;;
72586;SDS011;60621;49.576;11.024;2023-04-30T00:07:57;8.85;;;5.43;;
72586;SDS011;60621;49.576;11.024;2023-04-30T00:08:58;9.98;;;5.30;;
72586;SDS011;60621;49.576;11.024;2023-04-30T00:10:00;8.88;;;5.15;;
72586;SDS011;60621;49.576;11.024;2023-04-30T00:11:02;8.88;;;5.68;;
72586;SDS011;60621;49.576;11.024;2023-04-30T00:12:06;9.02;;;5.40;;
72586;SDS011;60621;49.576;11.024;2023-04-30T00:13:08;9.77;;;5.57;;
72586;SDS011;60621;49.576;11.024;2023-04-30T00:14:10;9.25;;;5.85;;
72586;SDS011;60621;49.576;11.024;2023-04-30T00:15:12;11.02;;;5.90;;
72586;SDS011;60621;49.576;11.024;2023-04-30T00:16:13;9.73;;;5.63;;
72586;SDS011;60621;49.576;11.024;2023-04-30T00:17:18;8.75;;;5.28;;
72586;SDS011;60621;49.576;11.024;2023-04-30T00:18:21;9.38;;;5.60;;
72586;SDS011;60621;49.576;11.024;2023-04-30T00:19:23;10.25;;;5.90;;
72586;SDS011;60621;49.576;11.024;2023-04-30T00:20:25;8.90;;;5.28;;
72586;SDS011;60621;49.576;11.024;2023-04-30T00:21:26;9.52;;;6.05;;
72586;SDS011;60621;49.576;11.024;2023-04-30T00:22:28;9.45;;;5.68;;
72586;SDS011;60621;49.576;11.024;2023-04-30T00:23:29;9.05;;;5.43;;
72586;SDS011;60621;49.576;11.024;2023-04-30T00:24:31;9.88;;;5.50;;
72586;SDS011;60621;49.576;11.024;2023-04-30T00:25:32;8.88;;;5.00;;
72586;SDS011;60621;49.576;11.024;2023-04-30T00:26:34;9.27;;;5.63;;
72586;SDS011;60621;49.576;11.024;2023-04-30T00:27:35;9.35;;;5.60;;
72586;SDS011;60621;49.576;11.024;2023-04-30T00:28:40;9.90;;;5.72;;
72586;SDS011;60621;49.576;11.024;2023-04-30T00:29:42;9.27;;;5.13;;
72586;SDS011;60621;49.576;11.024;2023-04-30T00:30:43;9.05;;;5.28;;
72586;SDS011;60621;49.576;11.024;2023-04-30T00:31:46;9.75;;;5.53;;
72586;SDS011;60621;49.576;11.024;2023-04-30T00:32:47;9.52;;;6.00;;
72586;SDS011;60621;49.576;11.024;2023-04-30T00:33:49;9.35;;;5.65;;
72586;SDS011;60621;49.576;11.024;2023-04-30T00:34:50;7.90;;;5.00;;
72586;SDS011;60621;49.576;11.024;2023-04-30T00:35:52;8.77;;;5.70;;
72586;SDS011;60621;49.576;11.024;2023-04-30T00:36:53;9.80;;;5.80;;
72586;SDS011;60621;49.576;11.024;2023-04-30T00:37:55;9.73;;;5.78;;
72586;SDS011;60621;49.576;11.024;2023-04-30T00:38:56;8.45;;;4.93;;
72586;SDS011;60621;49.576;11.024;2023-04-30T00:39:58;9.15;;;5.30;;
72586;SDS011;60621;49.576;11.024;2023-04-30T00:40:59;9.15;;;5.45;;
72586;SDS011;60621;49.576;11.024;2023-04-30T00:42:01;10.00;;;5.63;;
72586;SDS011;60621;49.576;11.024;2023-04-30T00:43:03;8.68;;;5.03;;
72586;SDS011;60621;49.576;11.024;2023-04-30T00:44:04;9.40;;;5.82;;
72586;SDS011;60621;49.576;11.024;2023-04-30T00:45:06;10.45;;;5.63;;
72586;SDS011;60621;49.576;11.024;2023-04-30T00:46:08;8.82;;;5.20;;
72586;SDS011;60621;49.576;11.024;2023-04-30T00:47:10;9.35;;;5.55;;
72586;SDS011;60621;49.576;11.024;2023-04-30T00:48:11;9.60;;;5.47;;
72586;SDS011;60621;49.576;11.024;2023-04-30T00:49:13;9.73;;;5.75;;
72586;SDS011;60621;49.576;11.024;2023-04-30T00:50:14;8.85;;;5.72;;
72586;SDS011;60621;49.576;11.024;2023-04-30T00:51:16;8.23;;;5.40;;
72586;SDS011;60621;49.576;11.024;2023-04-30T00:52:18;8.65;;;5.55;;
72586;SDS011;60621;49.576;11.024;2023-04-30T00:53:19;8.93;;;5.30;;
72586;SDS011;60621;49.576;11.024;2023-04-30T00:54:21;8.75;;;5.47;;
72586;SDS011;60621;49.576;11.024;2023-04-30T00:56:25;9.20;;;5.40;;
72586;SDS011;60621;49.576;11.024;2023-04-30T00:57:27;9.27;;;5.45;;
72586;SDS011;60621;49.576;11.024;2023-04-30T00:58:29;9.38;;;5.60;;
72586;SDS011;60621;49.576;11.024;2023-04-30T00:59:31;9.10;;;5.65;;
72586;SDS011;60621;49.576;11.024;2023-04-30T01:00:33;10.00;;;5.93;;
72586;SDS011;60621;49.576;11.024;2023-04-30T01:01:35;8.65;;;5.43;;
72586;SDS011;60621;49.576;11.024;2023-04-30T01:02:37;9.02;;;5.68;;
72586;SDS011;60621;49.576;11.024;2023-04-30T01:03:38;10.30;;;5.97;;
72586;SDS011;60621;49.576;11.024;2023-04-30T01:04:40;8.68;;;5.47;;
72586;SDS011;60621;49.576;11.024;2023-04-30T01:05:42;9.45;;;5.70;;
72586;SDS011;60621;49.576;11.024;2023-04-30T01:06:44;9.98;;;6.28;;
72586;SDS011;60621;49.576;11.024;2023-04-30T01:08:48;9.05;;;5.28;;
72586;SDS011;60621;49.576;11.024;2023-04-30T01:09:49;8.38;;;5.38;;
72586;SDS011;60621;49.576;11.024;2023-04-30T01:11:11;8.73;;;5.80;;
72586;SDS011;60621;49.576;11.024;2023-04-30T01:13:28;10.50;;;5.60;;
72586;SDS011;60621;49.576;11.024;2023-04-30T01:15:55;8.35;;;5.15;;
72586;SDS011;60621;49.576;11.024;2023-04-30T01:17:08;9.95;;;5.75;;
72586;SDS011;60621;49.576;11.024;2023-04-30T01:18:23;10.00;;;5.78;;
72586;SDS011;60621;49.576;11.024;2023-04-30T01:19:43;9.32;;;5.90;;
72586;SDS011;60621;49.576;11.024;2023-04-30T01:21:05;11.55;;;5.82;;
72586;SDS011;60621;49.576;11.024;2023-04-30T01:22:08;10.40;;;6.15;;
72586;SDS011;60621;49.576;11.024;2023-04-30T01:23:21;10.07;;;5.72;;
72586;SDS011;60621;49.576;11.024;2023-04-30T01:27:31;9.05;;;5.72;;
72586;SDS011;60621;49.576;11.024;2023-04-30T01:28:49;9.95;;;6.22;;
72586;SDS011;60621;49.576;11.024;2023-04-30T01:29:53;10.25;;;6.13;;
72586;SDS011;60621;49.576;11.024;2023-04-30T01:30:57;10.52;;;6.15;;
72586;SDS011;60621;49.576;11.024;2023-04-30T01:31:58;10.23;;;6.10;;
72586;SDS011;60621;49.576;11.024;2023-04-30T01:33:07;11.30;;;5.90;;
72586;SDS011;60621;49.576;11.024;2023-04-30T01:34:09;9.73;;;6.30;;
72586;SDS011;60621;49.576;11.024;2023-04-30T01:35:14;10.68;;;6.30;;
72586;SDS011;60621;49.576;11.024;2023-04-30T01:37:38;9.40;;;6.03;;
72586;SDS011;60621;49.576;11.024;2023-04-30T01:39:02;9.32;;;6.10;;
72586;SDS011;60621;49.576;11.024;2023-04-30T01:40:52;12.05;;;6.10;;
72586;SDS011;60621;49.576;11.024;2023-04-30T01:43:39;10.02;;;6.13;;
72586;SDS011;60621;49.576;11.024;2023-04-30T01:45:07;8.35;;;5.38;;
72586;SDS011;60621;49.576;11.024;2023-04-30T01:46:25;10.02;;;5.75;;
72586;SDS011;60621;49.576;11.024;2023-04-30T01:47:36;11.32;;;6.28;;
72586;SDS011;60621;49.576;11.024;2023-04-30T01:49:02;12.50;;;6.60;;
72586;SDS011;60621;49.576;11.024;2023-04-30T01:50:32;9.88;;;6.03;;
72586;SDS011;60621;49.576;11.024;2023-04-30T01:51:41;10.73;;;6.65;;
72586;SDS011;60621;49.576;11.024;2023-04-30T01:52:45;9.52;;;5.93;;
72586;SDS011;60621;49.576;11.024;2023-04-30T01:53:50;11.82;;;6.43;;
72586;SDS011;60621;49.576;11.024;2023-04-30T01:54:59;11.27;;;6.53;;
72586;SDS011;60621;49.576;11.024;2023-04-30T01:56:05;9.57;;;6.30;;
72586;SDS011;60621;49.576;11.024;2023-04-30T01:57:17;9.63;;;6.07;;
72586;SDS011;60621;49.576;11.024;2023-04-30T01:58:32;10.82;;;6.38;;
72586;SDS011;60621;49.576;11.024;2023-04-30T01:59:37;10.45;;;6.30;;
72586;SDS011;60621;49.576;11.024;2023-04-30T02:00:40;10.75;;;7.00;;
72586;SDS011;60621;49.576;11.024;2023-04-30T02:01:42;11.05;;;6.65;;
72586;SDS011;60621;49.576;11.024;2023-04-30T02:02:43;12.15;;;6.53;;
72586;SDS011;60621;49.576;11.024;2023-04-30T02:03:47;11.52;;;7.00;;
72586;SDS011;60621;49.576;11.024;2023-04-30T02:04:49;11.50;;;6.95;;
72586;SDS011;60621;49.576;11.024;2023-04-30T02:05:51;11.57;;;6.80;;
72586;SDS011;60621;49.576;11.024;2023-04-30T02:06:53;11.30;;;7.07;;
72586;SDS011;60621;49.576;11.024;2023-04-30T02:07:55;10.85;;;6.45;;
72586;SDS011;60621;49.576;11.024;2023-04-30T02:08:56;11.25;;;6.35;;
72586;SDS011;60621;49.576;11.024;2023-04-30T02:10:04;10.90;;;6.47;;
72586;SDS011;60621;49.576;11.024;2023-04-30T02:11:06;12.38;;;6.75;;
72586;SDS011;60621;49.576;11.024;2023-04-30T02:12:08;11.43;;;6.88;;
72586;SDS011;60621;49.576;11.024;2023-04-30T02:13:14;11.15;;;6.75;;
72586;SDS011;60621;49.576;11.024;2023-04-30T02:14:15;10.05;;;6.45;;
72586;SDS011;60621;49.576;11.024;2023-04-30T02:15:17;10.25;;;6.43;;
72586;SDS011;60621;49.576;11.024;2023-04-30T02:16:19;11.57;;;6.72;;
72586;SDS011;60621;49.576;11.024;2023-04-30T02:17:21;10.93;;;6.88;;
72586;SDS011;60621;49.576;11.024;2023-04-30T02:18:22;10.88;;;6.78;;
72586;SDS011;60621;49.576;11.024;2023-04-30T02:19:24;10.63;;;6.63;;
72586;SDS011;60621;49.576;11.024;2023-04-30T02:20:25;10.25;;;6.97;;
72586;SDS011;60621;49.576;11.024;2023-04-30T02:21:27;14.07;;;8.02;;
72586;SDS011;60621;49.576;11.024;2023-04-30T02:22:29;23.92;;;14.15;;
72586;SDS011;60621;49.576;11.024;2023-04-30T02:23:34;23.67;;;14.20;;
72586;SDS011;60621;49.576;11.024;2023-04-30T02:24:35;34.33;;;19.65;;
72586;SDS011;60621;49.576;11.024;2023-04-30T02:25:37;44.83;;;26.65;;
72586;SDS011;60621;49.576;11.024;2023-04-30T02:26:39;53.17;;;29.95;;
72586;SDS011;60621;49.576;11.024;2023-04-30T02:27:40;26.27;;;15.75;;
72586;SDS011;60621;49.576;11.024;2023-04-30T02:28:42;18.15;;;10.85;;
72586;SDS011;60621;49.576;11.024;2023-04-30T02:29:44;14.85;;;8.98;;
72586;SDS011;60621;49.576;11.024;2023-04-30T02:30:45;11.00;;;6.90;;
72586;SDS011;60621;49.576;11.024;2023-04-30T02:31:51;10.35;;;6.75;;
72586;SDS011;60621;49.576;11.024;2023-04-30T02:32:52;12.85;;;7.03;;
72586;SDS011;60621;49.576;11.024;2023-04-30T02:33:54;10.88;;;6.57;;
72586;SDS011;60621;49.576;11.024;2023-04-30T02:34:55;10.93;;;7.20;;
72586;SDS011;60621;49.576;11.024;2023-04-30T02:35:58;14.25;;;6.85;;
72586;SDS011;60621;49.576;11.024;2023-04-30T02:37:00;11.63;;;7.00;;
72586;SDS011;60621;49.576;11.024;2023-04-30T02:38:03;11.20;;;6.60;;
72586;SDS011;60621;49.576;11.024;2023-04-30T02:39:04;10.27;;;6.65;;
72586;SDS011;60621;49.576;11.024;2023-04-30T02:40:09;10.40;;;6.70;;
72586;SDS011;60621;49.576;11.024;2023-04-30T02:41:11;10.30;;;6.70;;
72586;SDS011;60621;49.576;11.024;2023-04-30T02:42:12;11.40;;;6.75;;
72586;SDS011;60621;49.576;11.024;2023-04-30T02:43:14;10.60;;;6.57;;
72586;SDS011;60621;49.576;11.024;2023-04-30T02:44:15;10.73;;;6.72;;
72586;SDS011;60621;49.576;11.024;2023-04-30T02:45:17;9.88;;;6.82;;
72586;SDS011;60621;49.576;11.024;2023-04-30T02:46:21;12.02;;;6.75;;
72586;SDS011;60621;49.576;11.024;2023-04-30T02:47:23;10.95;;;6.53;;
72586;SDS011;60621;49.576;11.024;2023-04-30T02:48:26;10.18;;;6.10;;
72586;SDS011;60621;49.576;11.024;2023-04-30T02:49:28;10.80;;;6.85;;
72586;SDS011;60621;49.576;11.024;2023-04-30T02:50:30;10.70;;;6.55;;
72586;SDS011;60621;49.576;11.024;2023-04-30T02:51:31;10.23;;;6.30;;
72586;SDS011;60621;49.576;11.024;2023-04-30T02:52:33;11.32;;;6.35;;
72586;SDS011;60621;49.576;11.024;2023-04-30T02:53:35;10.52;;;6.45;;
72586;SDS011;60621;49.576;11.024;2023-04-30T02:54:36;9.27;;;5.97;;
72586;SDS011;60621;49.576;11.024;2023-04-30T02:55:38;10.02;;;6.45;;
72586;SDS011;60621;49.576;11.024;2023-04-30T02:56:40;10.40;;;6.95;;
72586;SDS011;60621;49.576;11.024;2023-04-30T02:57:42;11.73;;;7.32;;
72586;SDS011;60621;49.576;11.024;2023-04-30T02:58:44;9.60;;;6.40;;
72586;SDS011;60621;49.576;11.024;2023-04-30T02:59:45;10.88;;;6.32;;
72586;SDS011;60621;49.576;11.024;2023-04-30T03:00:47;10.63;;;6.90;;
72586;SDS011;60621;49.576;11.024;2023-04-30T03:01:48;11.15;;;6.68;;
72586;SDS011;60621;49.576;11.024;2023-04-30T03:02:50;11.00;;;6.78;;
72586;SDS011;60621;49.576;11.024;2023-04-30T03:03:54;10.50;;;6.88;;
72586;SDS011;60621;49.576;11.024;2023-04-30T03:04:58;11.07;;;6.57;;
72586;SDS011;60621;49.576;11.024;2023-04-30T03:06:00;9.90;;;6.53;;
72586;SDS011;60621;49.576;11.024;2023-04-30T03:07:01;9.32;;;6.25;;
72586;SDS011;60621;49.576;11.024;2023-04-30T03:08:03;10.75;;;6.47;;
72586;SDS011;60621;49.576;11.024;2023-04-30T03:09:05;13.13;;;6.78;;
72586;SDS011;60621;49.576;11.024;2023-04-30T03:10:07;11.30;;;6.97;;
72586;SDS011;60621;49.576;11.024;2023-04-30T03:11:09;11.55;;;6.70;;
72586;SDS011;60621;49.576;11.024;2023-04-30T03:12:11;11.10;;;7.05;;
72586;SDS011;60621;49.576;11.024;2023-04-30T03:13:12;11.75;;;6.82;;
72586;SDS011;60621;49.576;11.024;2023-04-30T03:14:16;11.60;;;7.07;;
72586;SDS011;60621;49.576;11.024;2023-04-30T03:15:18;11.55;;;7.00;;
72586;SDS011;60621;49.576;11.024;2023-04-30T03:16:20;10.35;;;6.80;;
72586;SDS011;60621;49.576;11.024;2023-04-30T03:17:22;12.02;;;6.90;;
72586;SDS011;60621;49.576;11.024;2023-04-30T03:18:28;11.80;;;6.88;;
72586;SDS011;60621;49.576;11.024;2023-04-30T03:19:29;11.23;;;6.80;;
72586;SDS011;60621;49.576;11.024;2023-04-30T03:20:35;11.93;;;6.97;;
72586;SDS011;60621;49.576;11.024;2023-04-30T03:21:36;11.52;;;7.13;;
72586;SDS011;60621;49.576;11.024;2023-04-30T03:22:38;12.13;;;7.30;;
72586;SDS011;60621;49.576;11.024;2023-04-30T03:23:39;13.40;;;7.43;;
72586;SDS011;60621;49.576;11.024;2023-04-30T03:24:41;11.35;;;7.05;;
72586;SDS011;60621;49.576;11.024;2023-04-30T03:25:43;11.02;;;7.00;;
72586;SDS011;60621;49.576;11.024;2023-04-30T03:26:45;11.55;;;7.00;;
72586;SDS011;60621;49.576;11.024;2023-04-30T03:27:47;11.60;;;7.07;;
72586;SDS011;60621;49.576;11.024;2023-04-30T03:28:48;12.60;;;7.50;;
72586;SDS011;60621;49.576;11.024;2023-04-30T03:29:50;11.85;;;7.65;;
72586;SDS011;60621;49.576;11.024;2023-04-30T03:30:52;13.10;;;8.20;;
72586;SDS011;60621;49.576;11.024;2023-04-30T03:31:54;12.73;;;7.60;;
72586;SDS011;60621;49.576;11.024;2023-04-30T03:32:55;10.60;;;6.90;;
72586;SDS011;60621;49.576;11.024;2023-04-30T03:33:57;11.90;;;7.25;;
72586;SDS011;60621;49.576;11.024;2023-04-30T03:34:58;13.88;;;7.10;;
72586;SDS011;60621;49.576;11.024;2023-04-30T03:36:00;13.30;;;7.20;;
72586;SDS011;60621;49.576;11.024;2023-04-30T03:37:02;12.27;;;7.38;;
72586;SDS011;60621;49.576;11.024;2023-04-30T03:38:04;13.93;;;7.63;;
72586;SDS011;60621;49.576;11.024;2023-04-30T03:39:05;12.48;;;7.32;;
72586;SDS011;60621;49.576;11.024;2023-04-30T03:40:08;13.35;;;7.38;;
72586;SDS011;60621;49.576;11.024;2023-04-30T03:41:10;11.32;;;6.97;;
72586;SDS011;60621;49.576;11.024;2023-04-30T03:42:11;12.35;;;7.70;;
72586;SDS011;60621;49.576;11.024;2023-04-30T03:43:13;11.63;;;7.00;;
72586;SDS011;60621;49.576;11.024;2023-04-30T03:44:15;12.15;;;7.18;;
72586;SDS011;60621;49.576;11.024;2023-04-30T03:45:17;12.80;;;7.50;;
72586;SDS011;60621;49.576;11.024;2023-04-30T03:46:19;11.18;;;7.13;;
72586;SDS011;60621;49.576;11.024;2023-04-30T03:47:21;14.52;;;7.63;;
72586;SDS011;60621;49.576;11.024;2023-04-30T03:48:23;13.00;;;7.53;;
72586;SDS011;60621;49.576;11.024;2023-04-30T03:49:27;12.48;;;6.82;;
72586;SDS011;60621;49.576;11.024;2023-04-30T03:50:28;11.38;;;6.43;;
72586;SDS011;60621;49.576;11.024;2023-04-30T03:51:30;13.93;;;8.15;;
72586;SDS011;60621;49.576;11.024;2023-04-30T03:52:32;11.73;;;7.10;;
72586;SDS011;60621;49.576;11.024;2023-04-30T03:53:34;11.82;;;6.50;;
72586;SDS011;60621;49.576;11.024;2023-04-30T03:54:35;10.90;;;6.72;;
72586;SDS011;60621;49.576;11.024;2023-04-30T03:55:37;12.90;;;7.70;;
72586;SDS011;60621;49.576;11.024;2023-04-30T03:56:38;10.38;;;6.88;;
72586;SDS011;60621;49.576;11.024;2023-04-30T03:57:41;11.02;;;7.05;;
72586;SDS011;60621;49.576;11.024;2023-04-30T03:58:43;11.10;;;6.88;;
72586;SDS011;60621;49.576;11.024;2023-04-30T03:59:48;12.30;;;7.22;;
72586;SDS011;60621;49.576;11.024;2023-04-30T04:00:51;11.85;;;7.35;;
72586;SDS011;60621;49.576;11.024;2023-04-30T04:01:52;11.65;;;7.13;;
72586;SDS011;60621;49.576;11.024;2023-04-30T04:02:55;10.55;;;6.97;;
72586;SDS011;60621;49.576;11.024;2023-04-30T04:03:58;13.70;;;7.32;;
72586;SDS011;60621;49.576;11.024;2023-04-30T04:05:00;11.43;;;7.47;;
72586;SDS011;60621;49.576;11.024;2023-04-30T04:06:02;15.45;;;7.47;;
72586;SDS011;60621;49.576;11.024;2023-04-30T04:07:04;10.77;;;7.15;;
72586;SDS011;60621;49.576;11.024;2023-04-30T04:08:08;12.90;;;7.70;;
72586;SDS011;60621;49.576;11.024;2023-04-30T04:09:12;13.93;;;7.25;;
72586;SDS011;60621;49.576;11.024;2023-04-30T04:10:14;11.93;;;6.90;;
72586;SDS011;60621;49.576;11.024;2023-04-30T04:11:15;12.30;;;7.43;;
72586;SDS011;60621;49.576;11.024;2023-04-30T04:12:20;10.82;;;6.82;;
72586;SDS011;60621;49.576;11.024;2023-04-30T04:13:22;11.35;;;7.03;;
72586;SDS011;60621;49.576;11.024;2023-04-30T04:14:26;11.18;;;6.95;;
72586;SDS011;60621;49.576;11.024;2023-04-30T04:15:35;11.27;;;7.20;;
72586;SDS011;60621;49.576;11.024;2023-04-30T04:16:38;11.80;;;7.35;;
72586;SDS011;60621;49.576;11.024;2023-04-30T04:17:40;11.73;;;7.38;;
72586;SDS011;60621;49.576;11.024;2023-04-30T04:18:41;11.35;;;7.40;;
72586;SDS011;60621;49.576;11.024;2023-04-30T04:19:44;10.88;;;7.00;;
72586;SDS011;60621;49.576;11.024;2023-04-30T04:20:46;12.38;;;7.00;;
72586;SDS011;60621;49.576;11.024;2023-04-30T04:21:48;11.50;;;6.90;;
72586;SDS011;60621;49.576;11.024;2023-04-30T04:22:49;12.15;;;7.40;;
72586;SDS011;60621;49.576;11.024;2023-04-30T04:23:51;11.73;;;7.05;;
72586;SDS011;60621;49.576;11.024;2023-04-30T04:24:56;11.93;;;7.13;;
72586;SDS011;60621;49.576;11.024;2023-04-30T04:25:58;11.38;;;7.40;;
72586;SDS011;60621;49.576;11.024;2023-04-30T04:27:00;11.70;;;7.78;;
72586;SDS011;60621;49.576;11.024;2023-04-30T04:28:05;12.07;;;7.85;;
72586;SDS011;60621;49.576;11.024;2023-04-30T04:29:07;10.68;;;6.95;;
72586;SDS011;60621;49.576;11.024;2023-04-30T04:30:09;11.88;;;7.40;;
72586;SDS011;60621;49.576;11.024;2023-04-30T04:31:11;10.65;;;6.82;;
72586;SDS011;60621;49.576;11.024;2023-04-30T04:32:13;13.55;;;7.40;;
72586;SDS011;60621;49.576;11.024;2023-04-30T04:33:15;11.68;;;7.53;;
72586;SDS011;60621;49.576;11.024;2023-04-30T04:34:17;12.10;;;7.50;;
72586;SDS011;60621;49.576;11.024;2023-04-30T04:36:21;11.77;;;7.05;;
72586;SDS011;60621;49.576;11.024;2023-04-30T04:37:23;13.43;;;7.82;;
72586;SDS011;60621;49.576;11.024;2023-04-30T04:38:25;11.48;;;7.10;;
72586;SDS011;60621;49.576;11.024;2023-04-30T04:39:26;13.57;;;7.70;;
72586;SDS011;60621;49.576;11.024;2023-04-30T04:40:27;12.52;;;7.45;;
72586;SDS011;60621;49.576;11.024;2023-04-30T04:41:32;13.43;;;7.07;;
72586;SDS011;60621;49.576;11.024;2023-04-30T04:42:38;14.25;;;7.28;;
72586;SDS011;60621;49.576;11.024;2023-04-30T04:43:39;13.57;;;8.10;;
72586;SDS011;60621;49.576;11.024;2023-04-30T04:44:41;12.60;;;7.38;;
72586;SDS011;60621;49.576;11.024;2023-04-30T04:45:43;13.10;;;7.68;;
72586;SDS011;60621;49.576;11.024;2023-04-30T04:46:45;13.93;;;8.27;;
72586;SDS011;60621;49.576;11.024;2023-04-30T04:47:46;11.70;;;7.18;;
72586;SDS011;60621;49.576;11.024;2023-04-30T04:48:48;12.23;;;6.88;;
72586;SDS011;60621;49.576;11.024;2023-04-30T04:49:50;11.07;;;7.13;;
72586;SDS011;60621;49.576;11.024;2023-04-30T04:50:52;17.33;;;7.97;;
72586;SDS011;60621;49.576;11.024;2023-04-30T04:51:53;13.02;;;7.18;;
72586;SDS011;60621;49.576;11.024;2023-04-30T04:52:55;12.32;;;7.57;;
72586;SDS011;60621;49.576;11.024;2023-04-30T04:53:56;12.05;;;7.63;;
72586;SDS011;60621;49.576;11.024;2023-04-30T04:54:58;10.35;;;6.90;;
72586;SDS011;60621;49.576;11.024;2023-04-30T04:55:59;12.80;;;7.82;;
72586;SDS011;60621;49.576;11.024;2023-04-30T04:57:01;14.57;;;7.78;;
72586;SDS011;60621;49.576;11.024;2023-04-30T04:58:03;11.95;;;7.68;;
72586;SDS011;60621;49.576;11.024;2023-04-30T04:59:12;12.90;;;7.63;;
72586;SDS011;60621;49.576;11.024;2023-04-30T05:00:16;11.82;;;7.15;;
72586;SDS011;60621;49.576;11.024;2023-04-30T05:01:22;10.95;;;6.80;;
72586;SDS011;60621;49.576;11.024;2023-04-30T05:02:25;12.13;;;7.43;;
72586;SDS011;60621;49.576;11.024;2023-04-30T05:03:27;12.77;;;7.45;;
72586;SDS011;60621;49.576;11.024;2023-04-30T05:04:29;10.98;;;7.10;;
72586;SDS011;60621;49.576;11.024;2023-04-30T05:05:31;12.60;;;7.43;;
72586;SDS011;60621;49.576;11.024;2023-04-30T05:06:32;11.85;;;6.95;;
72586;SDS011;60621;49.576;11.024;2023-04-30T05:07:34;12.05;;;7.28;;
72586;SDS011;60621;49.576;11.024;2023-04-30T05:08:36;11.63;;;7.30;;
72586;SDS011;60621;49.576;11.024;2023-04-30T05:09:38;14.55;;;7.97;;
72586;SDS011;60621;49.576;11.024;2023-04-30T05:10:40;13.85;;;7.53;;
72586;SDS011;60621;49.576;11.024;2023-04-30T05:11:41;14.27;;;7.88;;
72586;SDS011;60621;49.576;11.024;2023-04-30T05:12:44;11.23;;;6.80;;
72586;SDS011;60621;49.576;11.024;2023-04-30T05:13:46;10.60;;;6.90;;
72586;SDS011;60621;49.576;11.024;2023-04-30T05:14:52;12.77;;;7.18;;
72586;SDS011;60621;49.576;11.024;2023-04-30T05:15:53;11.45;;;7.13;;
72586;SDS011;60621;49.576;11.024;2023-04-30T05:16:55;11.50;;;7.28;;
72586;SDS011;60621;49.576;11.024;2023-04-30T05:17:57;12.10;;;6.85;;
72586;SDS011;60621;49.576;11.024;2023-04-30T05:19:07;11.32;;;6.60;;
72586;SDS011;60621;49.576;11.024;2023-04-30T05:20:10;13.98;;;7.55;;
72586;SDS011;60621;49.576;11.024;2023-04-30T05:21:12;11.48;;;7.13;;
72586;SDS011;60621;49.576;11.024;2023-04-30T05:22:14;14.23;;;7.65;;
72586;SDS011;60621;49.576;11.024;2023-04-30T05:23:16;12.90;;;7.28;;
72586;SDS011;60621;49.576;11.024;2023-04-30T05:24:18;11.27;;;6.90;;
72586;SDS011;60621;49.576;11.024;2023-04-30T05:25:19;11.60;;;6.95;;
72586;SDS011;60621;49.576;11.024;2023-04-30T05:26:21;11.85;;;7.10;;
72586;SDS011;60621;49.576;11.024;2023-04-30T05:27:24;10.18;;;6.25;;
72586;SDS011;60621;49.576;11.024;2023-04-30T05:28:25;10.82;;;6.25;;
72586;SDS011;60621;49.576;11.024;2023-04-30T05:29:28;11.13;;;6.80;;
72586;SDS011;60621;49.576;11.024;2023-04-30T05:30:29;11.98;;;7.32;;
72586;SDS011;60621;49.576;11.024;2023-04-30T05:31:31;12.48;;;6.63;;
72586;SDS011;60621;49.576;11.024;2023-04-30T05:32:33;10.27;;;6.18;;
72586;SDS011;60621;49.576;11.024;2023-04-30T05:33:35;11.15;;;6.80;;
72586;SDS011;60621;49.576;11.024;2023-04-30T05:34:37;12.25;;;6.63;;
72586;SDS011;60621;49.576;11.024;2023-04-30T05:35:38;13.23;;;6.80;;
72586;SDS011;60621;49.576;11.024;2023-04-30T05:36:40;10.98;;;6.70;;
72586;SDS011;60621;49.576;11.024;2023-04-30T05:37:44;11.82;;;7.35;;
72586;SDS011;60621;49.576;11.024;2023-04-30T05:38:46;11.07;;;6.90;;
72586;SDS011;60621;49.576;11.024;2023-04-30T05:39:47;12.20;;;6.60;;
72586;SDS011;60621;49.576;11.024;2023-04-30T05:40:49;12.52;;;7.22;;
72586;SDS011;60621;49.576;11.024;2023-04-30T05:41:51;12.38;;;6.97;;
72586;SDS011;60621;49.576;11.024;2023-04-30T05:42:53;11.63;;;6.90;;
72586;SDS011;60621;49.576;11.024;2023-04-30T05:43:58;11.38;;;6.78;;
72586;SDS011;60621;49.576;11.024;2023-04-30T05:45:00;12.27;;;7.18;;
72586;SDS011;60621;49.576;11.024;2023-04-30T05:46:02;12.52;;;6.85;;
72586;SDS011;60621;49.576;11.024;2023-04-30T05:47:04;12.20;;;7.18;;
72586;SDS011;60621;49.576;11.024;2023-04-30T05:48:06;12.13;;;6.60;;
72586;SDS011;60621;49.576;11.024;2023-04-30T05:49:07;12.90;;;7.25;;
72586;SDS011;60621;49.576;11.024;2023-04-30T05:50:09;12.73;;;6.90;;
72586;SDS011;60621;49.576;11.024;2023-04-30T05:51:11;10.93;;;6.72;;
72586;SDS011;60621;49.576;11.024;2023-04-30T05:52:12;11.65;;;6.75;;
72586;SDS011;60621;49.576;11.024;2023-04-30T05:54:32;12.65;;;7.53;;
72586;SDS011;60621;49.576;11.024;2023-04-30T05:55:37;13.77;;;7.07;;
72586;SDS011;60621;49.576;11.024;2023-04-30T05:56:39;10.65;;;6.60;;
72586;SDS011;60621;49.576;11.024;2023-04-30T05:57:42;11.98;;;6.95;;
72586;SDS011;60621;49.576;11.024;2023-04-30T05:58:44;12.23;;;7.70;;
72586;SDS011;60621;49.576;11.024;2023-04-30T05:59:46;14.55;;;7.60;;
72586;SDS011;60621;49.576;11.024;2023-04-30T06:00:57;12.13;;;7.25;;
72586;SDS011;60621;49.576;11.024;2023-04-30T06:02:00;12.68;;;7.03;;
72586;SDS011;60621;49.576;11.024;2023-04-30T06:03:02;11.75;;;7.05;;
72586;SDS011;60621;49.576;11.024;2023-04-30T06:04:04;11.48;;;6.65;;
72586;SDS011;60621;49.576;11.024;2023-04-30T06:05:07;12.07;;;6.90;;
72586;SDS011;60621;49.576;11.024;2023-04-30T06:06:10;11.98;;;7.15;;
72586;SDS011;60621;49.576;11.024;2023-04-30T06:07:12;14.95;;;7.30;;
72586;SDS011;60621;49.576;11.024;2023-04-30T06:08:16;11.40;;;6.78;;
72586;SDS011;60621;49.576;11.024;2023-04-30T06:09:26;12.32;;;6.57;;
72586;SDS011;60621;49.576;11.024;2023-04-30T06:10:28;11.90;;;6.80;;
72586;SDS011;60621;49.576;11.024;2023-04-30T06:11:31;11.52;;;7.15;;
72586;SDS011;60621;49.576;11.024;2023-04-30T06:12:33;11.48;;;6.60;;
72586;SDS011;60621;49.576;11.024;2023-04-30T06:13:34;12.45;;;7.45;;
72586;SDS011;60621;49.576;11.024;2023-04-30T06:15:55;12.85;;;7.15;;
72586;SDS011;60621;49.576;11.024;2023-04-30T06:16:57;11.32;;;6.72;;
72586;SDS011;60621;49.576;11.024;2023-04-30T06:18:02;12.98;;;7.15;;
72586;SDS011;60621;49.576;11.024;2023-04-30T06:19:06;10.50;;;6.63;;
72586;SDS011;60621;49.576;11.024;2023-04-30T06:20:10;12.60;;;7.30;;
72586;SDS011;60621;49.576;11.024;2023-04-30T06:21:13;13.05;;;6.60;;
72586;SDS011;60621;49.576;11.024;2023-04-30T06:22:17;11.52;;;7.07;;
72586;SDS011;60621;49.576;11.024;2023-04-30T06:23:22;11.63;;;6.90;;
72586;SDS011;60621;49.576;11.024;2023-04-30T06:24:37;12.32;;;6.60;;
72586;SDS011;60621;49.576;11.024;2023-04-30T06:25:39;10.68;;;6.45;;